Time;durP1;ratioP1;P1;durP2;ratioP2;P2;SDS_P1;SDS_P2;PMS_P1;PMS_P2;Temp;Humidity;BMP_temperature;BMP_pressure;BME280_temperature;BME280_humidity;BME280_pressure;Samples;Min_cycle;Max_cycle;Signal;HPM_P1;HPM_P2
2022/01/13 00:00:40;;;;;;;172.98;45.17;;;;;;;;;;5110631;28;20066;-48
2022/01/13 00:03:09;;;;;;;188.93;43.75;;;;;;;;;;5111931;28;20040;-48
2022/01/13 00:05:36;;;;;;;258.60;48.63;;;;;;;;;;5112479;28;20054;-47
2022/01/13 00:08:02;;;;;;;270.73;48.97;;;;;;;;;;5094000;28;20047;-51
2022/01/13 00:10:46;;;;;;;316.23;50.63;;;;;;;;;;5112489;28;20031;-47
2022/01/13 00:13:21;;;;;;;222.13;43.78;;;;;;;;;;5111800;28;20032;-50
2022/01/13 00:16:24;;;;;;;217.90;44.42;;;;;;;;;;5112071;28;20040;-49
2022/01/13 00:18:49;;;;;;;247.05;44.85;;;;;;;;;;5110597;28;20053;-48
2022/01/13 00:21:35;;;;;;;323.88;51.33;;;;;;;;;;5111857;28;20066;-50
2022/01/13 00:24:03;;;;;;;191.00;42.38;;;;;;;;;;5111802;28;20101;-48
2022/01/13 00:26:32;;;;;;;246.63;45.25;;;;;;;;;;5112330;28;20058;-50
2022/01/13 00:29:01;;;;;;;348.35;52.20;;;;;;;;;;5112166;28;20105;-48
2022/01/13 00:31:42;;;;;;;349.77;52.47;;;;;;;;;;5108823;28;20056;-50
2022/01/13 00:34:08;;;;;;;264.00;47.15;;;;;;;;;;5112073;28;20039;-47
2022/01/13 00:36:36;;;;;;;349.00;54.20;;;;;;;;;;5111565;28;20092;-49
2022/01/13 00:39:06;;;;;;;217.80;43.70;;;;;;;;;;5112029;28;20043;-51
2022/01/13 00:41:32;;;;;;;239.70;44.50;;;;;;;;;;5111343;28;20043;-49
2022/01/13 00:44:03;;;;;;;312.90;49.08;;;;;;;;;;5093970;28;20067;-48
2022/01/13 00:46:41;;;;;;;338.73;48.72;;;;;;;;;;5111812;28;20135;-49
2022/01/13 00:49:08;;;;;;;297.50;47.60;;;;;;;;;;5111306;28;20051;-48
2022/01/13 00:51:35;;;;;;;244.40;45.97;;;;;;;;;;5110592;28;20038;-50
2022/01/13 00:54:05;;;;;;;272.25;46.28;;;;;;;;;;5111855;28;20046;-49
2022/01/13 00:56:32;;;;;;;345.95;50.30;;;;;;;;;;5111930;28;20040;-48
2022/01/13 00:59:10;;;;;;;219.23;41.90;;;;;;;;;;5104414;28;20047;-47
2022/01/13 01:01:43;;;;;;;310.17;48.72;;;;;;;;;;5108807;28;20485;-48
2022/01/13 01:04:11;;;;;;;220.73;41.45;;;;;;;;;;5093514;28;20078;-47
2022/01/13 01:06:46;;;;;;;181.13;39.58;;;;;;;;;;5111647;28;20048;-48
2022/01/13 01:09:17;;;;;;;315.58;46.75;;;;;;;;;;5112364;28;20400;-50
2022/01/13 01:11:47;;;;;;;225.32;42.17;;;;;;;;;;5111747;28;20100;-48
2022/01/13 01:14:17;;;;;;;262.75;44.42;;;;;;;;;;5112085;28;20046;-47
2022/01/13 01:16:46;;;;;;;315.50;46.92;;;;;;;;;;5111136;28;20527;-51
2022/01/13 01:19:14;;;;;;;309.58;46.45;;;;;;;;;;5112356;28;20052;-50
2022/01/13 01:21:52;;;;;;;265.80;43.80;;;;;;;;;;5111817;28;20119;-50
2022/01/13 01:26:55;;;;;;;337.33;48.08;;;;;;;;;;5112427;28;20044;-51
2022/01/13 01:29:30;;;;;;;157.15;34.60;;;;;;;;;;5112415;28;20492;-51
2022/01/13 01:32:00;;;;;;;179.23;35.75;;;;;;;;;;5112064;28;20084;-48
2022/01/13 01:36:58;;;;;;;293.08;42.58;;;;;;;;;;5112265;28;20516;-48
2022/01/13 01:39:27;;;;;;;288.13;41.50;;;;;;;;;;5112729;28;20372;-49
2022/01/13 01:41:57;;;;;;;285.13;40.83;;;;;;;;;;5111585;28;20100;-50
2022/01/13 01:44:33;;;;;;;207.40;38.25;;;;;;;;;;5112368;28;20032;-52
2022/01/13 01:47:00;;;;;;;275.83;42.03;;;;;;;;;;5111827;28;20079;-49
2022/01/13 01:49:28;;;;;;;176.30;34.83;;;;;;;;;;5111502;28;20089;-47
2022/01/13 01:52:00;;;;;;;268.63;40.33;;;;;;;;;;5110975;28;20061;-47
2022/01/13 01:54:30;;;;;;;237.98;37.70;;;;;;;;;;5111415;28;20039;-48
2022/01/13 01:56:58;;;;;;;219.77;36.90;;;;;;;;;;5093171;28;20047;-47
2022/01/13 01:59:31;;;;;;;238.02;37.45;;;;;;;;;;5110749;28;20044;-49
2022/01/13 02:02:02;;;;;;;146.77;32.35;;;;;;;;;;5110788;28;20050;-48
2022/01/13 02:04:33;;;;;;;246.48;36.90;;;;;;;;;;5111073;28;20191;-47
2022/01/13 02:07:05;;;;;;;160.60;33.05;;;;;;;;;;5110097;28;20077;-47
2022/01/13 02:09:35;;;;;;;150.75;31.73;;;;;;;;;;5093095;28;20165;-47
2022/01/13 02:12:05;;;;;;;224.68;35.63;;;;;;;;;;5110578;28;20397;-50
2022/01/13 02:14:35;;;;;;;141.20;29.30;;;;;;;;;;5111241;28;20058;-47
2022/01/13 02:17:08;;;;;;;176.20;31.80;;;;;;;;;;5093469;28;20493;-47
2022/01/13 02:19:37;;;;;;;156.32;30.58;;;;;;;;;;5111190;28;20052;-47
2022/01/13 02:22:04;;;;;;;215.90;33.88;;;;;;;;;;5110836;28;20063;-51
2022/01/13 02:24:31;;;;;;;136.82;28.73;;;;;;;;;;5111233;28;20055;-47
2022/01/13 02:27:03;;;;;;;220.18;36.50;;;;;;;;;;5111433;28;20396;-51
2022/01/13 02:29:36;;;;;;;147.57;29.73;;;;;;;;;;5111196;28;20071;-48
2022/01/13 02:32:07;;;;;;;156.98;29.85;;;;;;;;;;5110637;28;20089;-48
2022/01/13 02:34:39;;;;;;;129.88;27.40;;;;;;;;;;5110622;28;20044;-48
2022/01/13 02:37:05;;;;;;;181.75;31.20;;;;;;;;;;5110903;28;20431;-48
2022/01/13 02:39:35;;;;;;;167.68;30.20;;;;;;;;;;5110422;28;20054;-48
2022/01/13 02:42:03;;;;;;;169.30;30.60;;;;;;;;;;5091860;28;20450;-50
2022/01/13 02:44:30;;;;;;;131.15;26.48;;;;;;;;;;5110696;28;20081;-47
2022/01/13 02:47:32;;;;;;;209.50;32.38;;;;;;;;;;5110745;28;20154;-46
2022/01/13 02:50:04;;;;;;;130.20;26.58;;;;;;;;;;5110410;28;20456;-50
2022/01/13 02:52:32;;;;;;;164.27;29.17;;;;;;;;;;5110136;28;20043;-46
2022/01/13 02:54:58;;;;;;;162.27;29.08;;;;;;;;;;5110677;28;20039;-46
2022/01/13 02:57:24;;;;;;;105.43;24.73;;;;;;;;;;5110523;28;20118;-46
2022/01/13 02:59:50;;;;;;;183.52;30.40;;;;;;;;;;5110691;28;20046;-46
2022/01/13 03:02:16;;;;;;;150.05;28.42;;;;;;;;;;5109817;28;20370;-47
2022/01/13 03:04:49;;;;;;;167.55;30.58;;;;;;;;;;5109912;28;20046;-50
2022/01/13 03:07:16;;;;;;;181.02;31.15;;;;;;;;;;5110314;28;20458;-46
2022/01/13 03:09:42;;;;;;;207.55;32.30;;;;;;;;;;5110766;28;20039;-46
2022/01/13 03:12:09;;;;;;;146.25;29.10;;;;;;;;;;5113555;28;20035;-46
2022/01/13 03:14:35;;;;;;;151.07;29.48;;;;;;;;;;5114607;28;20043;-46
2022/01/13 03:17:02;;;;;;;153.80;28.50;;;;;;;;;;5114334;28;20515;-46
2022/01/13 03:19:28;;;;;;;156.98;27.90;;;;;;;;;;5114450;28;20051;-47
2022/01/13 03:21:54;;;;;;;174.63;29.45;;;;;;;;;;5114256;28;20538;-46
2022/01/13 03:24:20;;;;;;;144.25;28.20;;;;;;;;;;5114275;28;20035;-48
2022/01/13 03:26:49;;;;;;;142.38;30.65;;;;;;;;;;5114432;28;20077;-46
2022/01/13 03:29:19;;;;;;;122.13;26.23;;;;;;;;;;5114481;28;20036;-46
2022/01/13 03:31:45;;;;;;;177.07;31.45;;;;;;;;;;5113411;28;20043;-46
2022/01/13 03:34:14;;;;;;;118.28;26.50;;;;;;;;;;5096138;28;20089;-46
2022/01/13 03:36:41;;;;;;;153.05;29.13;;;;;;;;;;5114255;28;20077;-47
2022/01/13 03:39:08;;;;;;;109.53;24.80;;;;;;;;;;5114199;28;20516;-46
2022/01/13 03:41:34;;;;;;;144.98;27.13;;;;;;;;;;5113562;28;20088;-47
2022/01/13 03:44:07;;;;;;;107.78;24.67;;;;;;;;;;5095863;28;20047;-47
2022/01/13 03:46:37;;;;;;;120.20;25.58;;;;;;;;;;5113869;28;20048;-47
2022/01/13 03:49:07;;;;;;;168.38;30.90;;;;;;;;;;5109162;28;20092;-48
2022/01/13 03:52:03;;;;;;;91.10;22.02;;;;;;;;;;5113581;28;20040;-47
2022/01/13 03:54:32;;;;;;;119.32;25.23;;;;;;;;;;5086658;28;20048;-46
2022/01/13 03:57:17;;;;;;;134.70;26.92;;;;;;;;;;5113112;28;20450;-46
2022/01/13 04:00:01;;;;;;;116.07;25.20;;;;;;;;;;5113719;28;20109;-47
2022/01/13 04:02:27;;;;;;;120.35;24.45;;;;;;;;;;5112887;28;20039;-48
2022/01/13 04:04:53;;;;;;;111.00;23.35;;;;;;;;;;5113453;28;20043;-46
2022/01/13 04:07:23;;;;;;;88.45;23.25;;;;;;;;;;5113173;28;20511;-50
2022/01/13 04:09:49;;;;;;;115.32;25.15;;;;;;;;;;5113556;28;20039;-47
2022/01/13 04:12:15;;;;;;;107.63;24.88;;;;;;;;;;5112892;28;20389;-46
2022/01/13 04:17:08;;;;;;;131.73;26.23;;;;;;;;;;5113976;28;20485;-47
2022/01/13 04:19:34;;;;;;;106.32;23.20;;;;;;;;;;5113343;28;20373;-47
2022/01/13 04:22:00;;;;;;;97.47;23.70;;;;;;;;;;5112774;28;20031;-50
2022/01/13 04:24:26;;;;;;;86.15;22.35;;;;;;;;;;5113308;28;20044;-47
2022/01/13 04:26:54;;;;;;;101.20;22.50;;;;;;;;;;5113136;28;20378;-48
2022/01/13 04:29:29;;;;;;;111.78;25.58;;;;;;;;;;5113531;28;20035;-46
2022/01/13 04:31:55;;;;;;;95.00;22.08;;;;;;;;;;5112395;28;20079;-49
2022/01/13 04:34:21;;;;;;;81.10;22.13;;;;;;;;;;5112801;28;20135;-46
2022/01/13 04:36:48;;;;;;;82.20;21.05;;;;;;;;;;5113145;28;20046;-47
2022/01/13 04:39:15;;;;;;;91.82;23.02;;;;;;;;;;5112611;28;20044;-47
2022/01/13 04:41:43;;;;;;;84.75;21.20;;;;;;;;;;5111612;28;20048;-48
2022/01/13 04:44:11;;;;;;;94.10;22.08;;;;;;;;;;5094271;28;20058;-48
2022/01/13 04:46:37;;;;;;;77.22;22.65;;;;;;;;;;5094078;28;20035;-47
2022/01/13 04:49:04;;;;;;;109.20;23.45;;;;;;;;;;5113268;28;20035;-48
2022/01/13 04:51:30;;;;;;;113.78;24.15;;;;;;;;;;5112484;28;20046;-48
2022/01/13 04:53:56;;;;;;;128.73;26.42;;;;;;;;;;5112833;28;20116;-48
2022/01/13 04:56:29;;;;;;;91.00;23.38;;;;;;;;;;5112742;28;20126;-49
2022/01/13 04:58:55;;;;;;;104.57;24.00;;;;;;;;;;5111987;28;20075;-47
2022/01/13 05:01:22;;;;;;;88.50;22.38;;;;;;;;;;5112430;28;20423;-49
2022/01/13 05:03:48;;;;;;;88.90;21.92;;;;;;;;;;5112454;28;20085;-49
2022/01/13 05:06:17;;;;;;;115.60;24.70;;;;;;;;;;5110119;28;20039;-48
2022/01/13 05:08:43;;;;;;;96.97;30.70;;;;;;;;;;5093960;28;20032;-47
2022/01/13 05:11:09;;;;;;;84.80;23.30;;;;;;;;;;5096118;28;20062;-47
2022/01/13 05:13:35;;;;;;;117.78;33.38;;;;;;;;;;5092237;28;20390;-47
2022/01/13 05:16:01;;;;;;;87.47;22.75;;;;;;;;;;5105997;28;20088;-47
2022/01/13 05:18:42;;;;;;;67.15;22.85;;;;;;;;;;5091847;28;20082;-50
2022/01/13 05:21:19;;;;;;;126.53;38.10;;;;;;;;;;5091701;28;20071;-48
2022/01/13 05:23:45;;;;;;;114.13;33.47;;;;;;;;;;5091505;28;20040;-51
2022/01/13 05:26:12;;;;;;;92.03;26.90;;;;;;;;;;5091297;28;20397;-47
2022/01/13 05:28:40;;;;;;;137.90;38.65;;;;;;;;;;5092110;28;20138;-47
2022/01/13 05:31:06;;;;;;;94.53;33.85;;;;;;;;;;5076989;28;20502;-48
2022/01/13 05:33:32;;;;;;;84.20;23.77;;;;;;;;;;5097725;28;20062;-46
2022/01/13 05:36:00;;;;;;;83.80;23.52;;;;;;;;;;5111150;28;20048;-47
2022/01/13 05:38:26;;;;;;;94.10;27.02;;;;;;;;;;5090657;28;20051;-47
2022/01/13 05:40:53;;;;;;;94.22;24.85;;;;;;;;;;5110972;28;20043;-46
2022/01/13 05:43:19;;;;;;;89.45;25.70;;;;;;;;;;5111410;28;20069;-46
2022/01/13 05:45:45;;;;;;;88.82;24.05;;;;;;;;;;5091322;28;20076;-50
2022/01/13 05:48:12;;;;;;;106.97;26.65;;;;;;;;;;5110014;28;20279;-48
2022/01/13 05:50:38;;;;;;;96.20;24.17;;;;;;;;;;5109187;28;20082;-50
2022/01/13 05:53:07;;;;;;;90.25;24.92;;;;;;;;;;5110656;28;20054;-48
2022/01/13 05:55:33;;;;;;;119.35;27.10;;;;;;;;;;5110915;28;20075;-46
2022/01/13 05:58:03;;;;;;;105.25;26.00;;;;;;;;;;5111251;28;20044;-47
2022/01/13 06:00:29;;;;;;;91.78;25.55;;;;;;;;;;5111335;28;20517;-47
2022/01/13 06:02:56;;;;;;;97.60;25.50;;;;;;;;;;5110587;28;20493;-50
2022/01/13 06:05:22;;;;;;;97.25;26.88;;;;;;;;;;5092204;28;20043;-48
2022/01/13 06:07:51;;;;;;;105.95;26.05;;;;;;;;;;5110083;28;20035;-47
2022/01/13 06:10:19;;;;;;;107.75;26.63;;;;;;;;;;5110904;28;20066;-47
2022/01/13 06:12:48;;;;;;;96.60;26.98;;;;;;;;;;5109578;28;20053;-47
2022/01/13 06:15:15;;;;;;;103.85;27.83;;;;;;;;;;5105325;28;20043;-46
2022/01/13 06:17:42;;;;;;;92.68;23.95;;;;;;;;;;5089284;28;20256;-48
2022/01/13 06:20:10;;;;;;;108.50;28.98;;;;;;;;;;5109510;28;20354;-47
2022/01/13 06:22:37;;;;;;;91.57;27.40;;;;;;;;;;5109272;28;20114;-47
2022/01/13 06:25:03;;;;;;;89.60;23.60;;;;;;;;;;5107038;28;20036;-47
2022/01/13 06:27:30;;;;;;;95.80;24.10;;;;;;;;;;5109660;28;20238;-47
2022/01/13 06:29:55;;;;;;;101.05;24.42;;;;;;;;;;5110585;28;20134;-48
2022/01/13 06:32:22;;;;;;;107.65;25.77;;;;;;;;;;5110608;28;20114;-48
2022/01/13 06:34:56;;;;;;;91.00;24.30;;;;;;;;;;5110257;28;20408;-48
2022/01/13 06:37:22;;;;;;;110.97;31.58;;;;;;;;;;5110778;28;20039;-46
2022/01/13 06:39:48;;;;;;;99.50;25.40;;;;;;;;;;5110462;28;20053;-49
2022/01/13 06:42:17;;;;;;;96.20;24.50;;;;;;;;;;5092078;28;20534;-47
2022/01/13 06:44:44;;;;;;;85.43;29.77;;;;;;;;;;5110218;28;20455;-46
2022/01/13 06:47:10;;;;;;;95.15;25.15;;;;;;;;;;5110114;28;20408;-46
2022/01/13 06:49:36;;;;;;;97.55;24.63;;;;;;;;;;5109932;28;20110;-46
2022/01/13 06:52:02;;;;;;;85.50;23.30;;;;;;;;;;5110442;28;20130;-46
2022/01/13 06:54:28;;;;;;;82.60;21.42;;;;;;;;;;5110670;28;20063;-46
2022/01/13 06:56:54;;;;;;;118.10;27.55;;;;;;;;;;5110386;28;20508;-47
2022/01/13 06:59:21;;;;;;;105.40;24.55;;;;;;;;;;5110331;28;20046;-46
2022/01/13 07:01:48;;;;;;;78.60;22.95;;;;;;;;;;5109913;28;20094;-50
2022/01/13 07:04:14;;;;;;;99.38;24.50;;;;;;;;;;5109733;28;20128;-47
2022/01/13 07:06:41;;;;;;;95.82;24.42;;;;;;;;;;5110277;28;20115;-47
2022/01/13 07:09:11;;;;;;;98.43;23.70;;;;;;;;;;5092341;28;20044;-50
2022/01/13 07:11:38;;;;;;;91.25;25.23;;;;;;;;;;5109839;28;20378;-47
2022/01/13 07:14:04;;;;;;;88.70;23.42;;;;;;;;;;5110202;28;20035;-50
2022/01/13 07:16:30;;;;;;;106.95;26.17;;;;;;;;;;5110068;28;20043;-47
2022/01/13 07:18:56;;;;;;;90.50;24.50;;;;;;;;;;5092061;28;20396;-51
2022/01/13 07:21:25;;;;;;;117.03;26.15;;;;;;;;;;5109465;28;20088;-51
2022/01/13 07:23:51;;;;;;;142.13;29.50;;;;;;;;;;5092971;28;20039;-46
2022/01/13 07:26:17;;;;;;;101.95;26.38;;;;;;;;;;5110087;28;20062;-47
2022/01/13 07:28:43;;;;;;;117.50;26.95;;;;;;;;;;5110559;28;20035;-50
2022/01/13 07:31:09;;;;;;;94.15;23.38;;;;;;;;;;5109545;28;20042;-49
2022/01/13 07:33:36;;;;;;;133.05;29.15;;;;;;;;;;5110135;28;20093;-47
2022/01/13 07:36:04;;;;;;;110.15;26.70;;;;;;;;;;5110323;28;20385;-47
2022/01/13 07:38:30;;;;;;;98.55;24.83;;;;;;;;;;5110154;28;20061;-47
2022/01/13 07:40:56;;;;;;;122.40;27.23;;;;;;;;;;5111020;28;20130;-47
2022/01/13 07:43:23;;;;;;;98.13;23.10;;;;;;;;;;5110533;28;20133;-46
2022/01/13 07:45:52;;;;;;;115.53;25.50;;;;;;;;;;5110236;28;20044;-48
2022/01/13 07:48:19;;;;;;;101.30;24.73;;;;;;;;;;5110611;28;20481;-49
2022/01/13 07:50:48;;;;;;;98.28;23.88;;;;;;;;;;5110286;28;20055;-47
2022/01/13 07:53:14;;;;;;;120.10;26.10;;;;;;;;;;5110283;28;20119;-48
2022/01/13 07:55:40;;;;;;;104.30;26.42;;;;;;;;;;5110587;28;20055;-47
2022/01/13 07:58:06;;;;;;;115.97;25.90;;;;;;;;;;5111960;28;20084;-46
2022/01/13 08:00:36;;;;;;;91.88;22.52;;;;;;;;;;5114432;28;20031;-50
2022/01/13 08:03:02;;;;;;;103.38;26.17;;;;;;;;;;5114145;28;20047;-47
2022/01/13 08:05:28;;;;;;;100.90;27.30;;;;;;;;;;5114462;28;20039;-49
2022/01/13 08:07:54;;;;;;;103.57;28.20;;;;;;;;;;5114117;28;20043;-46
2022/01/13 08:10:20;;;;;;;118.05;28.45;;;;;;;;;;5114497;28;20061;-46
2022/01/13 08:12:46;;;;;;;111.68;26.60;;;;;;;;;;5113438;28;20077;-46
2022/01/13 08:15:14;;;;;;;109.40;25.73;;;;;;;;;;5113989;28;20384;-46
2022/01/13 08:20:29;;;;;;;106.60;24.83;;;;;;;;;;5113945;28;20047;-46
2022/01/13 08:22:55;;;;;;;136.80;29.08;;;;;;;;;;5113761;28;20050;-51
2022/01/13 08:25:21;;;;;;;116.03;28.77;;;;;;;;;;5113622;28;20114;-49
2022/01/13 08:27:47;;;;;;;97.28;25.10;;;;;;;;;;5113823;28;20509;-48
2022/01/13 08:30:13;;;;;;;94.20;25.90;;;;;;;;;;5113659;28;20043;-50
2022/01/13 08:32:39;;;;;;;85.85;23.15;;;;;;;;;;5113721;28;20036;-50
2022/01/13 08:35:14;;;;;;;95.75;24.27;;;;;;;;;;5113455;28;20405;-51
2022/01/13 08:37:41;;;;;;;84.70;23.95;;;;;;;;;;5113777;28;20082;-52
2022/01/13 08:40:08;;;;;;;96.78;25.13;;;;;;;;;;5113724;28;20051;-49
2022/01/13 08:42:35;;;;;;;85.93;23.23;;;;;;;;;;5113266;28;20057;-50
2022/01/13 08:45:01;;;;;;;84.68;23.98;;;;;;;;;;5113506;28;20039;-51
2022/01/13 08:47:27;;;;;;;104.93;25.88;;;;;;;;;;5113704;28;20069;-49
2022/01/13 08:49:53;;;;;;;101.32;27.13;;;;;;;;;;5113803;28;20035;-51
2022/01/13 08:52:19;;;;;;;91.78;25.15;;;;;;;;;;5113795;28;20096;-49
2022/01/13 08:54:46;;;;;;;91.40;24.65;;;;;;;;;;5113993;28;20139;-52
2022/01/13 08:57:13;;;;;;;103.43;27.92;;;;;;;;;;5113887;28;20047;-53
2022/01/13 08:59:42;;;;;;;110.68;28.98;;;;;;;;;;5113769;28;20043;-50
2022/01/13 09:02:08;;;;;;;130.25;35.15;;;;;;;;;;5113465;28;20040;-51
2022/01/13 09:04:34;;;;;;;88.03;26.55;;;;;;;;;;5113907;28;20050;-50
2022/01/13 09:07:00;;;;;;;100.20;31.15;;;;;;;;;;5113756;28;20388;-53
2022/01/13 09:09:26;;;;;;;125.90;35.17;;;;;;;;;;5113335;28;20047;-50
2022/01/13 09:11:52;;;;;;;117.65;30.35;;;;;;;;;;5113167;28;20109;-53
2022/01/13 09:14:24;;;;;;;82.95;25.27;;;;;;;;;;5112994;28;20035;-49
2022/01/13 09:16:50;;;;;;;84.50;26.63;;;;;;;;;;5112855;28;20094;-50
2022/01/13 09:19:18;;;;;;;92.22;26.13;;;;;;;;;;5112997;28;20071;-54
2022/01/13 09:21:44;;;;;;;83.22;24.45;;;;;;;;;;5112542;28;20119;-47
2022/01/13 09:24:15;;;;;;;92.45;26.85;;;;;;;;;;5112543;28;20411;-50
2022/01/13 09:26:41;;;;;;;88.20;27.25;;;;;;;;;;5112698;28;20044;-48
2022/01/13 09:29:07;;;;;;;107.53;27.83;;;;;;;;;;5112524;28;20043;-51
2022/01/13 09:31:35;;;;;;;89.03;25.75;;;;;;;;;;5094457;28;20044;-47
2022/01/13 09:34:01;;;;;;;101.80;26.08;;;;;;;;;;5112730;28;20040;-49
2022/01/13 09:36:28;;;;;;;94.25;25.20;;;;;;;;;;5094427;28;20059;-50
2022/01/13 09:38:54;;;;;;;90.60;26.23;;;;;;;;;;5112118;28;20043;-48
2022/01/13 09:41:27;;;;;;;88.20;24.88;;;;;;;;;;5111854;28;20134;-48
2022/01/13 09:43:53;;;;;;;88.55;23.90;;;;;;;;;;5111855;28;20097;-48
2022/01/13 09:46:19;;;;;;;101.18;26.52;;;;;;;;;;5110823;28;20134;-47
2022/01/13 09:48:46;;;;;;;80.18;24.73;;;;;;;;;;5111133;28;20124;-49
2022/01/13 09:51:12;;;;;;;79.70;23.60;;;;;;;;;;5111121;28;20489;-51
2022/01/13 09:53:41;;;;;;;94.53;25.60;;;;;;;;;;5111134;28;20063;-47
2022/01/13 09:56:08;;;;;;;99.25;26.90;;;;;;;;;;5111374;28;20489;-47
2022/01/13 09:58:34;;;;;;;92.43;24.38;;;;;;;;;;5112663;28;20054;-48
2022/01/13 10:01:00;;;;;;;93.47;26.17;;;;;;;;;;5112194;28;20047;-49
2022/01/13 10:03:28;;;;;;;84.93;24.27;;;;;;;;;;5112000;28;20040;-48
2022/01/13 10:05:54;;;;;;;104.30;24.50;;;;;;;;;;5112915;28;20089;-48
2022/01/13 10:08:49;;;;;;;102.50;26.55;;;;;;;;;;5111123;28;20035;-47
2022/01/13 10:11:37;;;;;;;102.50;26.35;;;;;;;;;;5072863;28;20091;-47
2022/01/13 10:17:09;;;;;;;107.05;31.67;;;;;;;;;;5067923;28;20040;-50
2022/01/13 10:19:43;;;;;;;89.95;28.73;;;;;;;;;;5102874;28;20047;-48
2022/01/13 10:22:08;;;;;;;129.80;38.75;;;;;;;;;;5107739;28;20235;-48
2022/01/13 10:24:36;;;;;;;138.52;37.35;;;;;;;;;;5110563;28;20035;-49
2022/01/13 10:27:12;;;;;;;93.97;27.77;;;;;;;;;;5092196;28;20044;-48
2022/01/13 10:29:46;;;;;;;96.18;25.08;;;;;;;;;;5108059;28;20035;-47
2022/01/13 10:32:18;;;;;;;81.32;25.02;;;;;;;;;;5098064;28;20618;-50
2022/01/13 10:34:46;;;;;;;92.95;29.08;;;;;;;;;;5089923;28;20375;-47
2022/01/13 10:37:17;;;;;;;89.25;27.90;;;;;;;;;;5090315;28;20405;-50
2022/01/13 10:39:49;;;;;;;95.35;26.58;;;;;;;;;;5090702;28;20047;-49
2022/01/13 10:45:00;;;;;;;95.25;27.20;;;;;;;;;;5072079;28;20101;-53
2022/01/13 10:47:30;;;;;;;77.63;25.98;;;;;;;;;;5090578;28;20044;-48
2022/01/13 10:50:00;;;;;;;83.47;25.08;;;;;;;;;;5090829;28;20040;-51
2022/01/13 10:52:29;;;;;;;93.80;29.67;;;;;;;;;;5089838;28;20375;-49
2022/01/13 10:55:16;;;;;;;87.97;26.15;;;;;;;;;;5090437;28;20408;-47
2022/01/13 10:57:43;;;;;;;87.35;27.30;;;;;;;;;;5090016;28;20078;-47
2022/01/13 11:00:22;;;;;;;91.85;27.35;;;;;;;;;;5090238;28;20085;-49
2022/01/13 11:02:59;;;;;;;91.80;27.30;;;;;;;;;;5089879;28;20040;-48
2022/01/13 11:05:26;;;;;;;69.95;22.88;;;;;;;;;;5090128;28;20044;-48
2022/01/13 11:07:58;;;;;;;78.07;23.75;;;;;;;;;;5089960;28;20036;-48
2022/01/13 11:10:25;;;;;;;70.70;22.85;;;;;;;;;;5090753;28;20511;-48
2022/01/13 11:12:56;;;;;;;73.35;23.50;;;;;;;;;;5089999;28;20040;-47
2022/01/13 11:15:24;;;;;;;70.30;23.33;;;;;;;;;;5090248;28;20447;-51
2022/01/13 11:17:55;;;;;;;71.88;25.10;;;;;;;;;;5090424;28;20118;-48
2022/01/13 11:20:22;;;;;;;77.55;24.20;;;;;;;;;;5089954;28;20032;-47
2022/01/13 11:22:54;;;;;;;74.65;23.88;;;;;;;;;;5089693;28;20039;-49
2022/01/13 11:25:23;;;;;;;77.63;24.67;;;;;;;;;;5090749;28;20036;-50
2022/01/13 11:27:50;;;;;;;68.03;23.13;;;;;;;;;;5090520;28;20044;-51
2022/01/13 11:30:17;;;;;;;64.28;21.92;;;;;;;;;;5090224;28;20392;-47
2022/01/13 11:32:45;;;;;;;65.65;24.35;;;;;;;;;;5090626;28;20039;-48
2022/01/13 11:35:14;;;;;;;72.15;23.85;;;;;;;;;;5094034;28;20413;-47
2022/01/13 11:37:42;;;;;;;75.78;25.50;;;;;;;;;;5094168;28;20109;-47
2022/01/13 11:40:28;;;;;;;65.07;22.45;;;;;;;;;;5094413;28;20043;-47
2022/01/13 11:42:55;;;;;;;61.95;22.65;;;;;;;;;;5093698;28;20068;-50
2022/01/13 11:45:22;;;;;;;66.05;24.27;;;;;;;;;;5093823;28;20040;-49
2022/01/13 11:48:11;;;;;;;69.15;22.13;;;;;;;;;;5094126;28;20070;-50
2022/01/13 11:50:44;;;;;;;71.75;22.23;;;;;;;;;;5083106;28;20044;-49
2022/01/13 11:53:25;;;;;;;76.72;23.33;;;;;;;;;;5093376;28;20044;-49
2022/01/13 11:56:11;;;;;;;71.35;23.73;;;;;;;;;;5093630;28;20423;-49
2022/01/13 11:58:45;;;;;;;68.30;23.75;;;;;;;;;;5091371;28;20047;-49
2022/01/13 12:01:31;;;;;;;56.13;20.38;;;;;;;;;;5093812;28;20036;-48
2022/01/13 12:04:10;;;;;;;76.18;25.15;;;;;;;;;;5093817;28;20541;-50
2022/01/13 12:06:39;;;;;;;69.70;22.63;;;;;;;;;;5093379;28;20047;-48
2022/01/13 12:09:06;;;;;;;67.32;23.52;;;;;;;;;;5094124;28;20461;-48
2022/01/13 12:11:39;;;;;;;62.05;21.95;;;;;;;;;;5093131;28;20062;-49
2022/01/13 12:14:46;;;;;;;71.03;23.60;;;;;;;;;;5093431;28;20066;-49
2022/01/13 12:17:24;;;;;;;79.75;28.17;;;;;;;;;;5093864;28;20046;-49
2022/01/13 12:20:02;;;;;;;67.05;22.05;;;;;;;;;;5093931;28;20194;-48
2022/01/13 12:22:38;;;;;;;73.32;23.42;;;;;;;;;;5093565;28;20562;-48
2022/01/13 12:25:06;;;;;;;66.25;23.30;;;;;;;;;;5093474;28;20119;-50
2022/01/13 12:27:36;;;;;;;66.30;23.35;;;;;;;;;;5093556;28;20774;-48
2022/01/13 12:30:15;;;;;;;61.10;22.40;;;;;;;;;;5093765;28;20131;-49
2022/01/13 12:32:42;;;;;;;67.70;22.25;;;;;;;;;;5075073;28;20436;-50
2022/01/13 12:35:28;;;;;;;63.70;22.17;;;;;;;;;;5093446;28;20574;-49
2022/01/13 12:38:24;;;;;;;96.75;37.38;;;;;;;;;;5092793;28;20051;-52
2022/01/13 12:41:13;;;;;;;54.33;21.65;;;;;;;;;;5092805;28;20394;-47
2022/01/13 12:46:17;;;;;;;65.50;27.00;;;;;;;;;;5092486;28;20048;-49
2022/01/13 12:48:46;;;;;;;56.85;21.70;;;;;;;;;;5093026;28;20055;-49
2022/01/13 12:51:39;;;;;;;56.45;21.70;;;;;;;;;;5074413;28;20047;-47
2022/01/13 12:54:05;;;;;;;55.03;22.10;;;;;;;;;;5092739;28;20047;-49
2022/01/13 12:56:32;;;;;;;57.22;24.13;;;;;;;;;;5092444;28;20524;-51
2022/01/13 12:59:00;;;;;;;55.22;23.80;;;;;;;;;;5092650;28;20032;-51
2022/01/13 13:01:28;;;;;;;61.03;23.15;;;;;;;;;;5091415;28;20050;-51
2022/01/13 13:04:01;;;;;;;60.55;26.95;;;;;;;;;;5074388;28;20040;-47
2022/01/13 13:06:40;;;;;;;53.13;21.25;;;;;;;;;;5092590;28;20071;-49
2022/01/13 13:09:12;;;;;;;65.43;24.98;;;;;;;;;;5074708;28;20047;-46
2022/01/13 13:11:44;;;;;;;65.25;25.08;;;;;;;;;;5091869;28;20040;-48
2022/01/13 13:14:21;;;;;;;59.90;23.20;;;;;;;;;;5091376;28;20040;-50
2022/01/13 13:16:53;;;;;;;66.85;23.95;;;;;;;;;;5091858;28;20048;-49
2022/01/13 13:19:23;;;;;;;67.20;24.25;;;;;;;;;;5091701;28;20043;-49
2022/01/13 13:21:52;;;;;;;55.78;22.70;;;;;;;;;;5091561;28;20046;-49
2022/01/13 13:24:28;;;;;;;68.03;24.38;;;;;;;;;;5091774;28;20119;-49
2022/01/13 13:26:57;;;;;;;59.40;23.38;;;;;;;;;;5092167;28;20040;-49
2022/01/13 13:29:24;;;;;;;67.93;23.60;;;;;;;;;;5091863;28;20058;-49
2022/01/13 13:31:53;;;;;;;65.35;24.77;;;;;;;;;;5091092;28;20043;-51
2022/01/13 13:34:19;;;;;;;71.07;24.60;;;;;;;;;;5091399;28;20119;-48
2022/01/13 13:36:48;;;;;;;70.60;25.90;;;;;;;;;;5092243;28;20051;-51
2022/01/13 13:39:22;;;;;;;70.90;25.65;;;;;;;;;;5091981;28;20032;-49
2022/01/13 13:41:54;;;;;;;65.93;25.52;;;;;;;;;;5073788;28;20044;-47
2022/01/13 13:44:26;;;;;;;69.47;26.47;;;;;;;;;;5091289;28;20575;-49
2022/01/13 13:46:54;;;;;;;65.70;25.80;;;;;;;;;;5091636;28;20087;-50
2022/01/13 13:49:21;;;;;;;73.93;26.42;;;;;;;;;;5091425;28;20044;-50
2022/01/13 13:51:54;;;;;;;75.70;26.27;;;;;;;;;;5091205;28;20082;-49
2022/01/13 13:54:21;;;;;;;72.80;28.48;;;;;;;;;;5091318;28;20044;-47
2022/01/13 13:56:49;;;;;;;70.05;25.83;;;;;;;;;;5090386;28;20058;-48
2022/01/13 13:59:18;;;;;;;75.03;26.38;;;;;;;;;;5091385;28;20435;-49
2022/01/13 14:02:05;;;;;;;67.00;25.52;;;;;;;;;;5072644;28;20097;-51
2022/01/13 14:04:44;;;;;;;72.13;28.33;;;;;;;;;;5091064;28;20043;-50
2022/01/13 14:07:39;;;;;;;74.65;31.50;;;;;;;;;;5089099;28;20048;-48
2022/01/13 14:10:27;;;;;;;70.47;28.08;;;;;;;;;;5091154;28;20570;-50
2022/01/13 14:13:08;;;;;;;89.40;41.33;;;;;;;;;;5090767;28;20085;-51
2022/01/13 14:15:38;;;;;;;79.88;31.65;;;;;;;;;;5090726;28;20113;-50
2022/01/13 14:18:18;;;;;;;69.07;28.30;;;;;;;;;;5072876;28;20074;-50
2022/01/13 14:20:50;;;;;;;69.93;28.13;;;;;;;;;;5091153;28;20094;-48
2022/01/13 14:23:18;;;;;;;70.03;26.42;;;;;;;;;;5091369;28;20070;-48
2022/01/13 14:25:49;;;;;;;68.50;26.92;;;;;;;;;;5091843;28;20094;-48
2022/01/13 14:28:25;;;;;;;67.55;26.75;;;;;;;;;;5089862;28;20048;-48
2022/01/13 14:31:04;;;;;;;71.13;26.83;;;;;;;;;;5091326;28;20080;-49
2022/01/13 14:33:35;;;;;;;67.50;27.45;;;;;;;;;;5090877;28;20087;-49
2022/01/13 14:36:18;;;;;;;69.60;27.70;;;;;;;;;;5090481;28;20055;-51
2022/01/13 14:38:47;;;;;;;63.10;26.58;;;;;;;;;;5090996;28;20047;-49
2022/01/13 14:41:17;;;;;;;69.70;26.50;;;;;;;;;;5090174;28;20492;-50
2022/01/13 14:44:01;;;;;;;67.35;26.48;;;;;;;;;;5090539;28;20086;-48
2022/01/13 14:46:27;;;;;;;70.03;29.42;;;;;;;;;;5090347;28;20547;-49